Time;durP1;ratioP1;P1;durP2;ratioP2;P2;SDS_P1;SDS_P2;PMS_P1;PMS_P2;Temp;Humidity;BMP_temperature;BMP_pressure;BME280_temperature;BME280_humidity;BME280_pressure;Samples;Min_cycle;Max_cycle;Signal;HPM_P1;HPM_P2
2023/12/28 00:00:10;;;;;;;22.20;4.30;;;10.90;99.90;;;;;;4202849;28;20078;-72
2023/12/28 00:02:11;;;;;;;21.98;4.40;;;10.90;99.90;;;;;;4202564;28;20029;-72
2023/12/28 00:04:11;;;;;;;22.60;3.72;;;10.90;99.90;;;;;;4201655;28;20029;-72
2023/12/28 00:06:12;;;;;;;20.40;2.92;;;10.90;99.90;;;;;;4201352;28;20028;-72
2023/12/28 00:08:13;;;;;;;22.98;4.78;;;10.90;99.90;;;;;;4201507;28;20025;-72
2023/12/28 00:10:14;;;;;;;22.38;4.97;;;10.90;99.90;;;;;;4201679;28;20021;-72
2023/12/28 00:12:14;;;;;;;26.17;4.50;;;10.90;99.90;;;;;;4202538;28;20476;-72
2023/12/28 00:14:15;;;;;;;24.75;4.63;;;10.80;99.90;;;;;;4202417;28;20038;-72
2023/12/28 00:16:15;;;;;;;28.38;4.53;;;10.80;99.90;;;;;;4202453;28;20024;-72
2023/12/28 00:18:16;;;;;;;22.50;4.38;;;10.70;99.90;;;;;;4184513;28;20044;-72
2023/12/28 00:20:17;;;;;;;21.83;4.30;;;10.70;99.90;;;;;;4196185;28;20067;-72
2023/12/28 00:22:17;;;;;;;21.50;4.57;;;10.70;99.90;;;;;;4201370;28;20029;-72
2023/12/28 00:24:20;;;;;;;19.77;3.85;;;10.70;99.90;;;;;;4206848;28;20063;-72
2023/12/28 00:26:21;;;;;;;23.23;3.67;;;10.80;99.90;;;;;;4200872;28;20047;-72
2023/12/28 00:28:22;;;;;;;16.83;3.67;;;10.80;99.90;;;;;;4201148;28;20072;-72
2023/12/28 00:30:22;;;;;;;23.63;3.40;;;10.80;99.90;;;;;;4192485;28;20021;-72
2023/12/28 00:32:23;;;;;;;17.85;3.20;;;10.90;99.90;;;;;;4201312;28;20078;-72
2023/12/28 00:34:23;;;;;;;22.83;4.32;;;10.90;99.90;;;;;;4202268;28;20028;-72
2023/12/28 00:36:24;;;;;;;24.92;4.00;;;11.00;99.90;;;;;;4200969;28;20103;-72
2023/12/28 00:38:25;;;;;;;39.80;5.28;;;11.00;99.90;;;;;;4200851;28;20020;-72
2023/12/28 00:40:25;;;;;;;24.30;4.32;;;11.10;99.90;;;;;;4200108;28;20016;-72
2023/12/28 00:42:26;;;;;;;20.88;2.88;;;11.10;99.90;;;;;;4202009;28;20033;-72
2023/12/28 00:44:27;;;;;;;26.58;3.30;;;11.20;99.90;;;;;;4201127;28;20071;-72
2023/12/28 00:46:28;;;;;;;22.90;3.92;;;11.20;99.90;;;;;;4201998;28;20111;-72
2023/12/28 00:48:28;;;;;;;17.98;4.32;;;11.30;99.90;;;;;;4201557;28;20059;-72
2023/12/28 00:50:31;;;;;;;26.40;4.88;;;11.30;99.90;;;;;;4202099;28;20033;-72
2023/12/28 00:52:32;;;;;;;27.15;3.72;;;11.30;99.90;;;;;;4201977;28;20084;-72
2023/12/28 00:54:32;;;;;;;23.60;3.50;;;11.30;99.90;;;;;;4200843;28;20035;-72
2023/12/28 00:56:33;;;;;;;22.83;3.83;;;11.20;99.90;;;;;;4201587;28;20028;-72
2023/12/28 00:58:34;;;;;;;20.70;3.33;;;11.20;99.90;;;;;;4201930;28;20024;-72
2023/12/28 01:00:34;;;;;;;17.92;3.60;;;11.10;99.90;;;;;;4202033;28;20541;-72
2023/12/28 01:02:35;;;;;;;21.45;3.80;;;11.10;99.90;;;;;;4201765;28;20020;-73
2023/12/28 01:04:36;;;;;;;26.08;3.72;;;11.00;99.90;;;;;;4201777;28;20492;-72
2023/12/28 01:06:36;;;;;;;23.30;3.38;;;11.00;99.90;;;;;;4201780;28;20032;-72
2023/12/28 01:08:37;;;;;;;25.58;4.07;;;10.90;99.90;;;;;;4201916;28;20403;-72
2023/12/28 01:10:38;;;;;;;23.00;4.25;;;10.90;99.90;;;;;;4201553;28;20031;-72
2023/12/28 01:12:38;;;;;;;26.85;3.03;;;10.90;99.90;;;;;;4200574;28;20147;-72
2023/12/28 01:14:39;;;;;;;20.15;4.45;;;10.90;99.90;;;;;;4201851;28;20024;-72
2023/12/28 01:16:40;;;;;;;19.75;3.65;;;10.90;99.90;;;;;;4184012;28;20025;-72
2023/12/28 01:18:40;;;;;;;17.77;3.65;;;11.00;99.90;;;;;;4194075;28;20125;-72
2023/12/28 01:20:41;;;;;;;26.00;3.75;;;11.10;99.90;;;;;;4200565;28;20122;-72
2023/12/28 01:22:42;;;;;;;31.08;3.95;;;11.10;99.90;;;;;;4201773;28;20024;-72
2023/12/28 01:24:46;;;;;;;23.45;2.97;;;11.20;99.90;;;;;;4201829;28;20104;-72
2023/12/28 01:26:47;;;;;;;22.77;4.32;;;11.30;99.90;;;;;;4201589;28;20092;-72
2023/12/28 01:28:48;;;;;;;25.90;4.03;;;11.30;99.90;;;;;;4201643;28;20028;-72
2023/12/28 01:30:48;;;;;;;21.67;3.47;;;11.40;99.90;;;;;;4191565;28;20112;-72
2023/12/28 01:32:49;;;;;;;25.67;3.35;;;11.40;99.90;;;;;;4201677;28;20025;-72
2023/12/28 01:34:50;;;;;;;18.95;3.38;;;11.50;99.90;;;;;;4201665;28;20499;-72
2023/12/28 01:36:50;;;;;;;28.02;3.90;;;11.50;99.90;;;;;;4201425;28;20028;-72
2023/12/28 01:38:51;;;;;;;17.20;2.90;;;11.50;99.90;;;;;;4201373;28;20024;-72
2023/12/28 01:40:52;;;;;;;27.23;3.35;;;11.50;99.90;;;;;;4200222;28;20097;-72
2023/12/28 01:42:53;;;;;;;24.70;3.78;;;11.50;99.90;;;;;;4201624;28;20150;-72
2023/12/28 01:44:53;;;;;;;26.33;3.00;;;11.50;99.90;;;;;;4201592;28;20020;-72
2023/12/28 01:46:54;;;;;;;21.13;3.45;;;11.40;99.90;;;;;;4200409;28;20476;-72
2023/12/28 01:48:55;;;;;;;19.00;3.08;;;11.30;99.90;;;;;;4201566;28;21171;-72
2023/12/28 01:50:56;;;;;;;13.68;3.55;;;11.20;99.90;;;;;;4200438;28;20076;-72
2023/12/28 01:52:59;;;;;;;23.48;3.88;;;11.10;99.90;;;;;;4201445;28;20027;-72
2023/12/28 01:54:59;;;;;;;24.70;4.30;;;11.00;99.90;;;;;;4201360;28;20104;-72
2023/12/28 01:57:00;;;;;;;22.52;4.20;;;10.90;99.90;;;;;;4200005;28;20024;-72
2023/12/28 01:59:01;;;;;;;27.83;6.40;;;10.90;99.90;;;;;;4183525;28;20036;-72
2023/12/28 02:01:01;;;;;;;24.33;3.78;;;10.80;99.90;;;;;;4198483;28;20016;-72
2023/12/28 02:03:02;;;;;;;22.98;4.28;;;10.80;99.90;;;;;;4204386;28;20031;-72
2023/12/28 02:05:04;;;;;;;25.60;3.50;;;10.80;99.90;;;;;;4204781;28;20559;-72
2023/12/28 02:07:05;;;;;;;17.98;3.30;;;10.80;99.90;;;;;;4204485;28;20012;-72
2023/12/28 02:09:06;;;;;;;18.63;4.45;;;10.80;99.90;;;;;;4203708;28;20055;-72
2023/12/28 02:11:07;;;;;;;22.65;4.72;;;10.70;99.90;;;;;;4204225;28;20410;-72
2023/12/28 02:13:07;;;;;;;26.17;3.55;;;10.60;99.90;;;;;;4203339;28;20028;-72
2023/12/28 02:15:08;;;;;;;24.27;3.00;;;10.60;99.90;;;;;;4203371;28;20035;-72
2023/12/28 02:17:43;;;;;;;23.88;3.70;;;10.60;99.90;;;;;;4204151;28;20017;-72
2023/12/28 02:19:50;;;;;;;23.75;5.15;;;10.50;99.90;;;;;;4203268;28;20044;-72
2023/12/28 02:21:52;;;;;;;21.80;3.65;;;10.40;99.90;;;;;;4203245;28;20029;-72
2023/12/28 02:23:52;;;;;;;19.48;3.50;;;10.30;99.90;;;;;;4203062;28;20039;-72
2023/12/28 02:25:53;;;;;;;23.20;4.68;;;10.30;99.90;;;;;;4229705;28;20024;-72
2023/12/28 02:27:54;;;;;;;25.92;4.60;;;10.20;99.90;;;;;;4194052;28;20020;-72
2023/12/28 02:29:55;;;;;;;26.92;4.32;;;10.20;99.90;;;;;;4204238;28;20111;-72
2023/12/28 02:32:01;;;;;;;28.67;4.60;;;10.10;99.90;;;;;;4203136;28;20462;-72
2023/12/28 02:34:09;;;;;;;21.00;5.18;;;10.10;99.90;;;;;;4203067;28;20028;-72
2023/12/28 02:36:11;;;;;;;23.02;3.33;;;10.10;99.90;;;;;;4202990;28;20024;-72
2023/12/28 02:38:14;;;;;;;19.60;4.22;;;10.00;99.90;;;;;;4202933;28;20478;-72
2023/12/28 02:40:16;;;;;;;16.25;3.65;;;10.00;99.90;;;;;;4203972;28;20027;-72
2023/12/28 02:42:17;;;;;;;25.80;3.92;;;9.90;99.90;;;;;;4202751;28;20105;-72
2023/12/28 02:44:18;;;;;;;15.38;4.80;;;9.90;99.90;;;;;;4204296;28;20418;-72
2023/12/28 02:46:19;;;;;;;25.17;3.75;;;9.90;99.90;;;;;;4204051;28;20021;-72
2023/12/28 02:48:19;;;;;;;17.52;4.00;;;9.90;99.90;;;;;;4203423;28;20063;-72
2023/12/28 02:50:20;;;;;;;19.60;2.45;;;9.80;99.90;;;;;;4203981;28;20377;-72
2023/12/28 02:52:20;;;;;;;20.13;3.70;;;9.80;99.90;;;;;;4203912;28;20020;-72
2023/12/28 02:54:21;;;;;;;25.60;4.00;;;9.70;99.90;;;;;;4203847;28;20025;-72
2023/12/28 02:56:22;;;;;;;22.92;4.50;;;9.70;99.90;;;;;;4202327;28;20025;-72
2023/12/28 02:58:22;;;;;;;16.10;3.13;;;9.60;99.90;;;;;;4203711;28;20060;-72
2023/12/28 03:00:23;;;;;;;18.45;3.40;;;9.60;99.90;;;;;;4185897;28;20025;-72
2023/12/28 03:02:24;;;;;;;23.77;4.32;;;9.60;99.90;;;;;;4202486;28;20020;-72
2023/12/28 03:04:24;;;;;;;23.48;3.58;;;9.60;99.90;;;;;;4202385;28;20017;-72
2023/12/28 03:06:25;;;;;;;27.75;5.18;;;9.50;99.90;;;;;;4202443;28;20087;-72
2023/12/28 03:08:26;;;;;;;23.20;2.97;;;9.50;99.90;;;;;;4185814;28;20044;-72
2023/12/28 03:10:26;;;;;;;21.60;4.28;;;9.50;99.90;;;;;;4202246;28;20066;-72
2023/12/28 03:12:28;;;;;;;31.17;5.45;;;9.50;99.90;;;;;;4181263;28;20071;-72
2023/12/28 03:14:29;;;;;;;18.88;2.92;;;9.50;99.90;;;;;;4185005;28;20021;-72
2023/12/28 03:16:29;;;;;;;27.15;4.05;;;9.50;99.90;;;;;;4203510;28;20518;-72
2023/12/28 03:18:30;;;;;;;29.05;4.05;;;9.40;99.90;;;;;;4203094;28;20091;-72
2023/12/28 03:20:30;;;;;;;26.20;3.80;;;9.40;99.90;;;;;;4202320;28;20126;-72
2023/12/28 03:22:31;;;;;;;30.15;4.43;;;9.40;99.90;;;;;;4203465;28;20044;-72
2023/12/28 03:24:32;;;;;;;19.90;4.75;;;9.40;99.90;;;;;;4202383;28;20027;-72
2023/12/28 03:26:35;;;;;;;29.30;4.10;;;9.40;99.90;;;;;;4203134;28;20028;-72
2023/12/28 03:28:35;;;;;;;27.65;3.80;;;9.40;99.90;;;;;;4202255;28;20455;-72
2023/12/28 03:30:36;;;;;;;28.58;3.42;;;9.40;99.90;;;;;;4185200;28;20025;-72
2023/12/28 03:32:36;;;;;;;32.13;4.13;;;9.30;99.90;;;;;;4191968;28;20060;-72
2023/12/28 03:34:37;;;;;;;19.73;4.38;;;9.30;99.90;;;;;;4203373;28;20395;-72
2023/12/28 03:36:38;;;;;;;27.05;4.40;;;9.30;99.90;;;;;;4203130;28;20024;-72
2023/12/28 03:38:39;;;;;;;27.52;5.07;;;9.20;99.90;;;;;;4202894;28;20053;-72
2023/12/28 03:40:39;;;;;;;24.73;4.80;;;9.20;99.90;;;;;;4202960;28;20017;-72
2023/12/28 03:42:40;;;;;;;20.20;3.67;;;9.20;99.90;;;;;;4202151;28;20021;-72
2023/12/28 03:44:41;;;;;;;26.17;4.32;;;9.20;99.90;;;;;;4201551;28;20024;-72
2023/12/28 03:46:41;;;;;;;28.63;3.97;;;9.10;99.90;;;;;;4202810;28;20023;-72
2023/12/28 03:48:42;;;;;;;24.30;4.68;;;9.10;99.90;;;;;;4201732;28;20024;-72
2023/12/28 03:50:43;;;;;;;21.17;3.42;;;9.00;99.90;;;;;;4203022;28;20024;-72
2023/12/28 03:52:43;;;;;;;19.73;2.97;;;9.00;99.90;;;;;;4201526;28;20028;-72
2023/12/28 03:54:44;;;;;;;18.83;3.67;;;9.00;99.90;;;;;;4202754;28;20033;-72
2023/12/28 03:56:46;;;;;;;25.05;4.68;;;8.90;99.90;;;;;;4202533;28;20027;-72
2023/12/28 03:58:47;;;;;;;23.27;4.05;;;8.90;99.90;;;;;;4201599;28;20024;-72
2023/12/28 04:00:47;;;;;;;21.63;4.60;;;8.90;99.90;;;;;;4202734;28;20024;-72
2023/12/28 04:02:48;;;;;;;21.75;3.05;;;8.80;99.90;;;;;;4201248;28;20090;-72
2023/12/28 04:04:49;;;;;;;22.02;3.25;;;8.70;99.90;;;;;;4202648;28;20031;-72
2023/12/28 04:06:49;;;;;;;19.13;3.50;;;8.70;99.90;;;;;;4202849;28;20020;-72
2023/12/28 04:08:50;;;;;;;30.52;4.53;;;8.70;99.90;;;;;;4201526;28;20021;-72
2023/12/28 04:10:50;;;;;;;28.85;3.67;;;8.70;99.90;;;;;;4202346;28;20107;-72
2023/12/28 04:12:55;;;;;;;27.33;4.35;;;8.70;99.90;;;;;;4202438;28;20437;-72
2023/12/28 04:14:55;;;;;;;;;;;8.70;99.90;;;;;;4203032;28;20056;-72
2023/12/28 04:16:56;;;;;;;17.80;2.97;;;8.60;99.90;;;;;;4200947;28;19904;-72
2023/12/28 04:18:57;;;;;;;25.65;4.10;;;8.60;99.90;;;;;;4185488;28;20033;-72
2023/12/28 04:20:57;;;;;;;28.70;4.60;;;8.60;99.90;;;;;;4201211;28;20103;-72
2023/12/28 04:22:58;;;;;;;24.65;4.30;;;8.60;99.90;;;;;;4200363;28;20047;-73
2023/12/28 04:24:59;;;;;;;28.17;3.33;;;8.60;99.90;;;;;;4202489;28;20024;-72
2023/12/28 04:26:59;;;;;;;23.90;3.97;;;8.50;99.90;;;;;;4201983;28;20017;-72
2023/12/28 04:29:00;;;;;;;23.35;3.78;;;8.50;99.90;;;;;;4201002;28;20025;-72
2023/12/28 04:31:04;;;;;;;23.58;3.28;;;8.50;99.90;;;;;;4190347;28;20017;-72
2023/12/28 04:33:05;;;;;;;24.40;4.82;;;8.50;99.90;;;;;;4202355;28;20081;-72
2023/12/28 04:35:06;;;;;;;25.17;3.63;;;8.50;99.90;;;;;;4202287;28;20430;-72
2023/12/28 04:37:07;;;;;;;20.40;3.80;;;8.50;99.90;;;;;;4200813;28;20538;-72
2023/12/28 04:39:07;;;;;;;20.52;3.28;;;8.50;99.90;;;;;;4200441;28;20028;-72
2023/12/28 04:41:09;;;;;;;27.35;4.28;;;8.40;99.90;;;;;;4201802;28;20028;-72
2023/12/28 04:43:10;;;;;;;22.85;5.10;;;8.40;99.90;;;;;;4202058;28;20036;-72
2023/12/28 04:45:11;;;;;;;22.17;4.80;;;8.40;99.90;;;;;;4202060;28;20025;-72
2023/12/28 04:47:11;;;;;;;24.65;3.75;;;8.40;99.90;;;;;;4201961;28;20029;-72
2023/12/28 04:49:12;;;;;;;24.05;3.53;;;8.40;99.90;;;;;;4202237;28;20048;-72
2023/12/28 04:51:13;;;;;;;28.58;3.83;;;8.40;99.90;;;;;;4202023;28;20028;-72
2023/12/28 04:53:14;;;;;;;22.85;5.10;;;8.40;99.90;;;;;;4183878;28;20025;-72
2023/12/28 04:55:14;;;;;;;26.27;3.63;;;8.40;99.90;;;;;;4188796;28;20074;-72
2023/12/28 04:57:15;;;;;;;27.50;5.53;;;8.40;99.90;;;;;;4201876;28;20031;-72
2023/12/28 04:59:16;;;;;;;27.58;3.47;;;8.40;99.90;;;;;;4202009;28;20024;-72
2023/12/28 05:01:16;;;;;;;25.08;5.10;;;8.30;99.90;;;;;;4201701;28;20024;-72
2023/12/28 05:03:17;;;;;;;27.85;4.20;;;8.30;99.90;;;;;;4201648;28;20070;-72
2023/12/28 05:05:18;;;;;;;24.20;3.28;;;8.40;99.90;;;;;;4200769;28;20020;-72
2023/12/28 05:07:18;;;;;;;21.10;3.88;;;8.40;99.90;;;;;;4201819;28;20490;-72
2023/12/28 05:09:19;;;;;;;21.75;3.72;;;8.40;99.90;;;;;;4200686;28;20028;-72
2023/12/28 05:11:20;;;;;;;18.95;3.22;;;8.40;99.90;;;;;;4200088;28;20068;-72
2023/12/28 05:13:20;;;;;;;23.05;4.43;;;8.40;99.90;;;;;;4200745;28;20534;-72
2023/12/28 05:15:21;;;;;;;22.45;3.95;;;8.40;99.90;;;;;;4200648;28;20063;-72
2023/12/28 05:17:22;;;;;;;21.48;4.25;;;8.40;99.90;;;;;;4200188;28;20045;-72
2023/12/28 05:19:22;;;;;;;25.17;3.97;;;8.40;99.90;;;;;;4201510;28;20035;-72
2023/12/28 05:21:23;;;;;;;24.17;3.80;;;8.40;99.90;;;;;;4200783;28;20525;-72
2023/12/28 05:23:23;;;;;;;25.10;4.03;;;8.40;99.90;;;;;;4200582;28;20025;-72
2023/12/28 05:25:24;;;;;;;24.20;3.25;;;8.40;99.90;;;;;;4201409;28;20020;-72
2023/12/28 05:27:25;;;;;;;21.13;3.50;;;8.50;99.90;;;;;;4200498;28;20399;-72
2023/12/28 05:29:25;;;;;;;29.02;4.10;;;8.50;99.90;;;;;;4232063;28;20020;-72
2023/12/28 05:31:26;;;;;;;22.20;4.10;;;8.40;99.90;;;;;;4193361;28;20043;-72
2023/12/28 05:33:27;;;;;;;19.92;4.25;;;8.40;99.90;;;;;;4201871;28;20183;-72
2023/12/28 05:35:27;;;;;;;25.40;4.13;;;8.40;99.90;;;;;;4204504;28;20028;-72
2023/12/28 05:37:28;;;;;;;24.20;3.47;;;8.40;99.90;;;;;;4203695;28;20519;-72
2023/12/28 05:39:29;;;;;;;28.52;3.63;;;8.40;99.90;;;;;;4203794;28;20036;-72
2023/12/28 05:41:29;;;;;;;20.58;3.88;;;8.30;99.90;;;;;;4203567;28;20431;-72
2023/12/28 05:43:30;;;;;;;31.33;4.03;;;8.30;99.90;;;;;;4203457;28;20044;-72
2023/12/28 05:45:31;;;;;;;30.13;4.97;;;8.30;99.90;;;;;;4204925;28;20067;-72
2023/12/28 05:47:31;;;;;;;28.55;3.88;;;8.30;99.90;;;;;;4204832;28;20092;-72
2023/12/28 05:49:32;;;;;;;19.55;3.50;;;8.30;99.90;;;;;;4203801;28;20043;-72
2023/12/28 05:51:40;;;;;;;21.83;3.63;;;8.30;99.90;;;;;;4204671;28;20021;-72
2023/12/28 05:53:40;;;;;;;25.52;3.22;;;8.30;99.90;;;;;;4191250;28;20459;-72
2023/12/28 05:55:41;;;;;;;14.30;3.08;;;8.30;99.90;;;;;;4204617;28;20044;-72
2023/12/28 05:57:42;;;;;;;20.05;4.35;;;8.30;99.90;;;;;;4204682;28;20020;-72
2023/12/28 05:59:43;;;;;;;39.00;4.25;;;8.30;99.90;;;;;;4204553;28;20404;-72
2023/12/28 06:01:44;;;;;;;30.48;3.83;;;8.40;99.90;;;;;;4204705;28;20043;-72
2023/12/28 06:03:45;;;;;;;19.83;2.75;;;8.40;99.90;;;;;;4204599;28;20070;-73
2023/12/28 06:05:45;;;;;;;20.10;3.40;;;8.30;99.90;;;;;;4204612;28;20056;-72
2023/12/28 06:07:46;;;;;;;23.63;3.15;;;8.30;99.90;;;;;;4203287;28;20035;-72
2023/12/28 06:09:47;;;;;;;23.42;4.30;;;8.30;99.90;;;;;;4204577;28;20019;-72
2023/12/28 06:11:47;;;;;;;21.13;4.10;;;8.30;99.90;;;;;;4209042;28;20020;-72
2023/12/28 06:13:48;;;;;;;21.08;3.00;;;8.20;99.90;;;;;;4203270;28;20063;-72
2023/12/28 06:15:49;;;;;;;18.38;3.20;;;8.20;99.90;;;;;;4204469;28;20028;-73
2023/12/28 06:17:49;;;;;;;16.40;3.67;;;8.20;99.90;;;;;;4204176;28;20041;-72
2023/12/28 06:19:50;;;;;;;25.02;3.83;;;8.20;99.90;;;;;;4203267;28;20017;-72
2023/12/28 06:21:50;;;;;;;17.75;3.40;;;8.20;99.90;;;;;;4186988;28;20021;-72
2023/12/28 06:23:51;;;;;;;19.90;4.13;;;8.10;99.90;;;;;;4204342;28;20052;-72
2023/12/28 06:25:52;;;;;;;20.08;2.80;;;8.10;99.90;;;;;;4203813;28;20051;-72
2023/12/28 06:27:52;;;;;;;20.33;2.88;;;8.10;99.90;;;;;;4203327;28;20048;-72
2023/12/28 06:29:53;;;;;;;19.02;3.38;;;8.10;99.90;;;;;;4198429;28;20025;-72
2023/12/28 06:31:54;;;;;;;23.65;3.50;;;8.10;99.90;;;;;;4198310;28;20056;-72
2023/12/28 06:33:54;;;;;;;26.25;4.22;;;8.00;99.90;;;;;;4202591;28;20506;-72
2023/12/28 06:35:57;;;;;;;14.23;2.40;;;8.00;99.90;;;;;;4204170;28;20025;-72
2023/12/28 06:37:58;;;;;;;23.38;3.83;;;8.00;99.90;;;;;;4204132;28;20036;-72
2023/12/28 06:39:59;;;;;;;19.20;2.58;;;7.90;99.90;;;;;;4202886;28;20035;-72
2023/12/28 06:41:59;;;;;;;20.88;3.90;;;7.90;99.90;;;;;;4203870;28;20021;-72
2023/12/28 06:44:00;;;;;;;25.10;3.63;;;7.90;99.90;;;;;;4204046;28;20017;-72
2023/12/28 06:46:01;;;;;;;23.52;3.05;;;7.90;99.90;;;;;;4203243;28;20175;-72
2023/12/28 06:48:01;;;;;;;24.38;3.10;;;7.90;99.90;;;;;;4203919;28;20024;-72
2023/12/28 06:50:02;;;;;;;21.85;2.75;;;7.90;99.90;;;;;;4185920;28;20033;-72
2023/12/28 06:52:03;;;;;;;16.90;2.90;;;7.90;99.90;;;;;;4220696;28;20020;-72
2023/12/28 06:54:04;;;;;;;19.52;2.50;;;7.80;99.90;;;;;;4194050;28;20043;-72
2023/12/28 06:56:05;;;;;;;27.55;3.38;;;7.90;99.90;;;;;;4203545;28;20017;-72
2023/12/28 06:58:07;;;;;;;22.42;4.13;;;7.90;99.90;;;;;;4202443;28;20024;-72
2023/12/28 07:00:08;;;;;;;27.65;3.13;;;7.90;99.90;;;;;;4203831;28;20078;-72
2023/12/28 07:02:08;;;;;;;16.50;3.08;;;7.90;99.90;;;;;;4202451;28;20557;-72
2023/12/28 07:04:09;;;;;;;23.52;4.25;;;8.00;99.90;;;;;;4203630;28;20016;-72
2023/12/28 07:06:10;;;;;;;21.42;3.38;;;8.00;99.90;;;;;;4185650;28;20132;-72
2023/12/28 07:08:11;;;;;;;22.50;3.97;;;8.00;99.90;;;;;;4191048;28;20032;-72
2023/12/28 07:10:11;;;;;;;17.58;3.67;;;8.00;99.90;;;;;;4203457;28;20032;-72
2023/12/28 07:12:12;;;;;;;13.32;2.50;;;8.00;99.90;;;;;;4203640;28;20056;-72
2023/12/28 07:14:13;;;;;;;24.70;4.45;;;7.90;99.90;;;;;;4203669;28;20028;-72
2023/12/28 07:16:13;;;;;;;22.77;3.28;;;7.90;99.90;;;;;;4202329;28;20462;-72
2023/12/28 07:18:14;;;;;;;25.80;3.67;;;7.90;99.90;;;;;;4203150;28;20059;-72
2023/12/28 07:20:15;;;;;;;23.20;4.05;;;7.90;99.90;;;;;;4203565;28;20036;-72
2023/12/28 07:22:16;;;;;;;16.33;2.60;;;7.90;99.90;;;;;;4203457;28;20025;-72
2023/12/28 07:24:16;;;;;;;20.65;3.33;;;7.90;99.90;;;;;;4203405;28;20040;-72
2023/12/28 07:26:17;;;;;;;15.40;2.60;;;7.90;99.90;;;;;;4202328;28;20064;-72
2023/12/28 07:28:18;;;;;;;16.38;2.38;;;7.90;99.90;;;;;;4203503;28;20427;-72
2023/12/28 07:30:19;;;;;;;25.38;3.05;;;7.90;99.90;;;;;;4192745;28;20520;-72
2023/12/28 07:32:20;;;;;;;22.08;2.78;;;7.90;99.90;;;;;;4201013;28;20028;-72
2023/12/28 07:34:20;;;;;;;24.52;4.65;;;7.80;99.90;;;;;;4202258;28;20480;-72
2023/12/28 07:36:21;;;;;;;23.25;3.28;;;7.80;99.90;;;;;;4202079;28;20028;-72
2023/12/28 07:38:22;;;;;;;20.50;2.95;;;7.80;99.90;;;;;;4201915;28;20027;-72
2023/12/28 07:40:22;;;;;;;20.17;3.25;;;7.90;99.90;;;;;;4201437;28;20024;-72
2023/12/28 07:42:23;;;;;;;26.58;3.28;;;7.90;99.90;;;;;;4202184;28;20439;-72
2023/12/28 07:44:24;;;;;;;32.15;4.93;;;7.90;99.90;;;;;;4185038;28;20501;-72
2023/12/28 07:46:24;;;;;;;21.95;3.22;;;7.90;99.90;;;;;;4202708;28;20013;-72
2023/12/28 07:48:25;;;;;;;28.92;3.67;;;7.90;99.90;;;;;;4202859;28;20060;-72
2023/12/28 07:50:26;;;;;;;18.95;3.42;;;8.00;99.90;;;;;;4201907;28;20020;-72
2023/12/28 07:52:26;;;;;;;27.60;3.42;;;8.00;99.90;;;;;;4203010;28;20484;-72
2023/12/28 07:54:28;;;;;;;27.70;4.22;;;8.00;99.90;;;;;;4201719;28;20066;-72
2023/12/28 07:56:28;;;;;;;23.05;4.68;;;8.00;99.90;;;;;;4201139;28;20035;-72
2023/12/28 07:58:29;;;;;;;17.48;2.50;;;8.00;99.90;;;;;;4200599;28;20107;-72
2023/12/28 08:00:29;;;;;;;20.63;4.03;;;8.00;99.90;;;;;;4185231;28;20388;-72
2023/12/28 08:02:30;;;;;;;22.83;4.43;;;8.10;99.90;;;;;;4196703;28;20077;-72
2023/12/28 08:04:31;;;;;;;28.23;3.10;;;8.00;99.90;;;;;;4201234;28;20028;-72
2023/12/28 08:06:32;;;;;;;28.58;4.00;;;8.00;99.90;;;;;;4202606;28;20052;-72
2023/12/28 08:08:34;;;;;;;23.27;3.92;;;8.00;99.90;;;;;;4205731;28;20032;-72
2023/12/28 08:10:34;;;;;;;24.08;4.28;;;8.00;99.90;;;;;;4209066;28;20025;-72
2023/12/28 08:12:35;;;;;;;24.52;3.17;;;8.00;99.90;;;;;;4202710;28;20073;-72
2023/12/28 08:14:36;;;;;;;27.20;3.63;;;8.00;99.90;;;;;;4202679;28;20020;-72
2023/12/28 08:16:36;;;;;;;33.15;5.40;;;8.00;99.90;;;;;;4202532;28;20104;-72
2023/12/28 08:18:37;;;;;;;27.35;3.88;;;8.00;99.90;;;;;;4202264;28;20408;-72
2023/12/28 08:20:38;;;;;;;23.42;4.43;;;8.00;99.90;;;;;;4202597;28;20135;-72
2023/12/28 08:22:38;;;;;;;24.67;3.08;;;8.00;99.90;;;;;;4202295;28;20021;-72
2023/12/28 08:24:39;;;;;;;18.42;3.13;;;8.00;99.90;;;;;;4184677;28;20032;-72
2023/12/28 08:26:40;;;;;;;24.20;4.78;;;8.00;99.90;;;;;;4224296;28;20012;-72
2023/12/28 08:28:41;;;;;;;27.02;7.00;;;8.00;99.90;;;;;;4184563;28;20191;-72
2023/12/28 08:30:41;;;;;;;24.98;8.63;;;8.00;99.90;;;;;;4191819;28;20063;-72
2023/12/28 08:32:42;;;;;;;22.48;8.02;;;8.00;99.90;;;;;;4200635;28;20081;-72
2023/12/28 08:34:43;;;;;;;27.38;8.63;;;8.00;99.90;;;;;;4202072;28;20024;-72
2023/12/28 08:36:44;;;;;;;26.48;9.75;;;8.00;99.90;;;;;;4201007;28;20564;-72
2023/12/28 08:38:44;;;;;;;31.38;10.23;;;8.00;99.90;;;;;;4201127;28;20029;-72
2023/12/28 08:40:45;;;;;;;38.35;11.15;;;8.00;99.90;;;;;;4201682;28;20031;-72
2023/12/28 08:42:46;;;;;;;35.92;12.63;;;8.10;99.90;;;;;;4202185;28;20024;-72
2023/12/28 08:44:47;;;;;;;22.55;11.73;;;8.10;99.90;;;;;;4202192;28;20055;-72
2023/12/28 08:46:47;;;;;;;28.50;11.32;;;8.20;99.90;;;;;;4200793;28;20032;-72
2023/12/28 08:48:48;;;;;;;33.95;9.73;;;8.30;99.90;;;;;;4201969;28;20028;-74
2023/12/28 08:50:48;;;;;;;27.45;8.20;;;8.40;99.90;;;;;;4202286;28;20391;-74
2023/12/28 08:52:49;;;;;;;25.77;7.30;;;8.40;99.90;;;;;;4201917;28;20055;-74
2023/12/28 08:54:50;;;;;;;25.27;7.95;;;8.50;99.90;;;;;;4200755;28;20024;-74
2023/12/28 08:56:50;;;;;;;23.88;6.93;;;8.70;99.90;;;;;;4200428;28;20016;-74
2023/12/28 08:58:52;;;;;;;25.95;6.05;;;8.80;99.90;;;;;;4201940;28;20024;-72
2023/12/28 09:00:53;;;;;;;23.30;5.88;;;8.90;99.90;;;;;;4200927;28;20016;-72
2023/12/28 09:02:53;;;;;;;20.83;5.65;;;8.90;99.90;;;;;;4201670;28;20498;-72
2023/12/28 09:04:54;;;;;;;21.08;4.43;;;8.90;99.90;;;;;;4201457;28;20027;-72
2023/12/28 09:06:55;;;;;;;17.75;5.25;;;8.80;99.90;;;;;;4201252;28;20023;-72
2023/12/28 09:08:56;;;;;;;20.88;4.45;;;8.80;99.90;;;;;;4201492;28;20020;-72
2023/12/28 09:10:57;;;;;;;20.88;4.15;;;8.80;99.90;;;;;;4201527;28;20036;-72
2023/12/28 09:12:57;;;;;;;19.88;4.20;;;8.80;99.90;;;;;;4201823;28;20052;-72
2023/12/28 09:14:58;;;;;;;18.08;3.28;;;8.80;99.90;;;;;;4201893;28;20484;-72
2023/12/28 09:16:59;;;;;;;13.77;3.05;;;8.90;99.90;;;;;;4201709;28;20016;-72
2023/12/28 09:19:01;;;;;;;19.55;2.55;;;8.90;99.90;;;;;;4201609;28;20048;-72
2023/12/28 09:21:02;;;;;;;21.17;3.45;;;8.90;99.90;;;;;;4201863;28;20025;-72
2023/12/28 09:23:03;;;;;;;30.30;4.15;;;9.00;99.90;;;;;;4201790;28;20023;-72
2023/12/28 09:25:04;;;;;;;19.00;3.70;;;9.00;99.90;;;;;;4200281;28;20512;-72
2023/12/28 09:27:05;;;;;;;14.55;2.65;;;9.10;99.90;;;;;;4234103;28;20091;-72
2023/12/28 09:29:06;;;;;;;20.52;3.33;;;9.20;99.90;;;;;;4183735;28;20508;-72
2023/12/28 09:31:07;;;;;;;16.42;2.70;;;9.30;99.90;;;;;;4233252;28;20028;-72
2023/12/28 09:33:07;;;;;;;17.73;3.75;;;9.30;99.90;;;;;;4201920;28;20050;-72
2023/12/28 09:35:08;;;;;;;14.73;2.95;;;9.40;99.90;;;;;;4200639;28;20024;-72
2023/12/28 09:37:09;;;;;;;29.80;4.55;;;9.50;99.90;;;;;;4201707;28;20505;-72
2023/12/28 09:39:11;;;;;;;17.63;3.47;;;9.50;99.90;;;;;;4201783;28;20028;-72
2023/12/28 09:41:17;;;;;;;19.75;4.00;;;9.60;99.90;;;;;;4201391;28;20104;-72
2023/12/28 09:43:25;;;;;;;22.20;5.35;;;9.70;99.90;;;;;;4201521;28;20028;-72
2023/12/28 09:45:26;;;;;;;15.00;2.75;;;9.80;99.90;;;;;;4201601;28;20033;-72
2023/12/28 09:47:26;;;;;;;15.25;3.03;;;9.80;99.90;;;;;;4197194;28;20496;-72
2023/12/28 09:49:28;;;;;;;12.40;2.80;;;9.90;99.90;;;;;;4183854;28;20040;-72
2023/12/28 09:51:29;;;;;;;18.50;3.58;;;10.00;99.90;;;;;;4218397;28;20545;-73
2023/12/28 09:53:30;;;;;;;16.63;3.78;;;10.00;99.90;;;;;;4188487;28;20025;-72
2023/12/28 09:55:30;;;;;;;16.30;3.95;;;10.10;99.90;;;;;;4200971;28;20050;-72
2023/12/28 09:57:31;;;;;;;14.30;3.58;;;10.20;99.90;;;;;;4201476;28;20028;-72
2023/12/28 09:59:32;;;;;;;17.52;3.58;;;10.30;99.90;;;;;;4201526;28;20025;-72
2023/12/28 10:01:34;;;;;;;13.13;3.60;;;10.30;99.90;;;;;;4197049;28;20033;-72
2023/12/28 10:03:35;;;;;;;17.95;3.25;;;10.40;99.90;;;;;;4183555;28;20029;-72
2023/12/28 10:05:36;;;;;;;19.48;3.20;;;10.50;99.90;;;;;;4200610;28;20059;-72
2023/12/28 10:07:44;;;;;;;20.80;3.72;;;10.50;99.90;;;;;;4208281;28;20383;-72
2023/12/28 10:09:44;;;;;;;16.17;2.97;;;10.60;99.90;;;;;;4201495;28;20032;-72
2023/12/28 10:11:45;;;;;;;17.30;3.50;;;10.70;99.90;;;;;;4201221;28;20024;-72
2023/12/28 10:13:46;;;;;;;16.10;2.90;;;10.80;99.90;;;;;;4200324;28;20020;-72
2023/12/28 10:15:47;;;;;;;17.08;3.13;;;10.80;99.90;;;;;;4200175;28;20021;-72
2023/12/28 10:17:48;;;;;;;13.68;3.10;;;10.90;99.90;;;;;;4200889;28;20045;-72
2023/12/28 10:19:49;;;;;;;15.90;3.42;;;11.00;99.90;;;;;;4200314;28;20031;-72
2023/12/28 10:21:50;;;;;;;20.00;4.07;;;11.10;99.90;;;;;;4203067;28;20484;-72
2023/12/28 10:23:51;;;;;;;17.90;3.53;;;11.30;99.90;;;;;;4186377;28;20021;-72
2023/12/28 10:25:54;;;;;;;14.73;3.03;;;11.40;99.90;;;;;;4219547;28;20434;-72